sensor_id;sensor_type;location;lat;lon;timestamp;temperature;humidity
53776;DHT22;44276;49.534;6.378;2023-07-20T00:00:30;12.70;99.90
53776;DHT22;44276;49.534;6.378;2023-07-20T00:03:10;12.60;99.90
53776;DHT22;44276;49.534;6.378;2023-07-20T00:05:45;12.40;99.90
53776;DHT22;44276;49.534;6.378;2023-07-20T00:08:14;12.50;99.90
53776;DHT22;44276;49.534;6.378;2023-07-20T00:10:43;12.50;99.90
53776;DHT22;44276;49.534;6.378;2023-07-20T00:13:12;12.50;99.90
53776;DHT22;44276;49.534;6.378;2023-07-20T00:15:40;12.40;99.90
53776;DHT22;44276;49.534;6.378;2023-07-20T00:18:09;12.40;99.90
53776;DHT22;44276;49.534;6.378;2023-07-20T00:20:37;12.40;99.90
53776;DHT22;44276;49.534;6.378;2023-07-20T00:23:07;12.30;99.90
53776;DHT22;44276;49.534;6.378;2023-07-20T00:25:35;12.00;99.90
53776;DHT22;44276;49.534;6.378;2023-07-20T00:28:04;11.80;99.90
53776;DHT22;44276;49.534;6.378;2023-07-20T00:30:32;11.60;99.90
53776;DHT22;44276;49.534;6.378;2023-07-20T00:33:01;11.50;99.90
53776;DHT22;44276;49.534;6.378;2023-07-20T00:35:29;11.70;99.90
53776;DHT22;44276;49.534;6.378;2023-07-20T00:37:58;11.90;99.90
53776;DHT22;44276;49.534;6.378;2023-07-20T00:40:27;11.90;99.90
53776;DHT22;44276;49.534;6.378;2023-07-20T00:42:56;12.00;99.90
53776;DHT22;44276;49.534;6.378;2023-07-20T00:45:25;11.90;99.90
53776;DHT22;44276;49.534;6.378;2023-07-20T00:47:54;11.80;99.90
53776;DHT22;44276;49.534;6.378;2023-07-20T00:50:23;11.80;99.90
53776;DHT22;44276;49.534;6.378;2023-07-20T00:52:52;11.70;99.90
53776;DHT22;44276;49.534;6.378;2023-07-20T00:55:21;11.70;99.90
53776;DHT22;44276;49.534;6.378;2023-07-20T00:57:54;11.70;99.90
53776;DHT22;44276;49.534;6.378;2023-07-20T01:00:23;11.60;99.90
53776;DHT22;44276;49.534;6.378;2023-07-20T01:02:51;11.70;99.90
53776;DHT22;44276;49.534;6.378;2023-07-20T01:05:20;11.60;99.90
53776;DHT22;44276;49.534;6.378;2023-07-20T01:07:59;11.60;99.90
53776;DHT22;44276;49.534;6.378;2023-07-20T01:10:36;11.60;99.90
53776;DHT22;44276;49.534;6.378;2023-07-20T01:13:10;11.60;99.90
53776;DHT22;44276;49.534;6.378;2023-07-20T01:15:41;11.60;99.90
53776;DHT22;44276;49.534;6.378;2023-07-20T01:18:10;11.50;99.90
53776;DHT22;44276;49.534;6.378;2023-07-20T01:20:38;11.30;99.90
53776;DHT22;44276;49.534;6.378;2023-07-20T01:23:34;11.20;99.90
53776;DHT22;44276;49.534;6.378;2023-07-20T01:26:38;11.20;99.90
53776;DHT22;44276;49.534;6.378;2023-07-20T01:29:38;11.10;99.90
53776;DHT22;44276;49.534;6.378;2023-07-20T01:32:24;11.00;99.90
53776;DHT22;44276;49.534;6.378;2023-07-20T01:34:54;10.90;99.90
53776;DHT22;44276;49.534;6.378;2023-07-20T01:37:25;10.90;99.90
53776;DHT22;44276;49.534;6.378;2023-07-20T01:39:56;10.90;99.90
53776;DHT22;44276;49.534;6.378;2023-07-20T01:42:29;10.90;99.90
53776;DHT22;44276;49.534;6.378;2023-07-20T01:44:58;10.80;99.90
53776;DHT22;44276;49.534;6.378;2023-07-20T01:47:28;10.70;99.90
53776;DHT22;44276;49.534;6.378;2023-07-20T01:49:56;10.70;99.90
53776;DHT22;44276;49.534;6.378;2023-07-20T01:52:25;10.80;99.90
53776;DHT22;44276;49.534;6.378;2023-07-20T01:54:54;10.80;99.90
53776;DHT22;44276;49.534;6.378;2023-07-20T01:57:31;10.90;99.90
53776;DHT22;44276;49.534;6.378;2023-07-20T02:00:10;10.80;99.90
53776;DHT22;44276;49.534;6.378;2023-07-20T02:02:41;10.60;99.90
53776;DHT22;44276;49.534;6.378;2023-07-20T02:05:16;10.40;99.90
53776;DHT22;44276;49.534;6.378;2023-07-20T02:07:48;10.40;99.90
53776;DHT22;44276;49.534;6.378;2023-07-20T02:10:17;10.50;99.90
53776;DHT22;44276;49.534;6.378;2023-07-20T02:12:45;10.50;99.90
53776;DHT22;44276;49.534;6.378;2023-07-20T02:15:14;10.70;99.90
53776;DHT22;44276;49.534;6.378;2023-07-20T02:17:45;10.70;99.90
53776;DHT22;44276;49.534;6.378;2023-07-20T02:20:13;10.80;99.90
53776;DHT22;44276;49.534;6.378;2023-07-20T02:22:42;10.80;99.90
53776;DHT22;44276;49.534;6.378;2023-07-20T02:25:11;10.70;99.90
53776;DHT22;44276;49.534;6.378;2023-07-20T02:27:40;10.60;99.90
53776;DHT22;44276;49.534;6.378;2023-07-20T02:30:09;10.60;99.90
53776;DHT22;44276;49.534;6.378;2023-07-20T02:32:38;10.50;99.90
53776;DHT22;44276;49.534;6.378;2023-07-20T02:35:08;10.50;99.90
53776;DHT22;44276;49.534;6.378;2023-07-20T02:37:37;10.50;99.90
53776;DHT22;44276;49.534;6.378;2023-07-20T02:40:06;10.60;99.90
53776;DHT22;44276;49.534;6.378;2023-07-20T02:42:35;10.50;99.90
53776;DHT22;44276;49.534;6.378;2023-07-20T02:45:05;10.40;99.90
53776;DHT22;44276;49.534;6.378;2023-07-20T02:47:34;10.40;99.90
53776;DHT22;44276;49.534;6.378;2023-07-20T02:50:05;10.40;99.90
53776;DHT22;44276;49.534;6.378;2023-07-20T02:52:36;10.20;99.90
53776;DHT22;44276;49.534;6.378;2023-07-20T02:55:05;10.00;99.90
53776;DHT22;44276;49.534;6.378;2023-07-20T02:57:34;9.90;99.90
53776;DHT22;44276;49.534;6.378;2023-07-20T03:00:06;9.90;99.90
53776;DHT22;44276;49.534;6.378;2023-07-20T03:02:35;10.00;99.90
53776;DHT22;44276;49.534;6.378;2023-07-20T03:05:05;10.10;99.90
53776;DHT22;44276;49.534;6.378;2023-07-20T03:07:36;10.20;99.90
53776;DHT22;44276;49.534;6.378;2023-07-20T03:10:05;10.20;99.90
53776;DHT22;44276;49.534;6.378;2023-07-20T03:12:36;10.10;99.90
53776;DHT22;44276;49.534;6.378;2023-07-20T03:15:06;10.00;99.90
53776;DHT22;44276;49.534;6.378;2023-07-20T03:17:35;9.80;99.90
53776;DHT22;44276;49.534;6.378;2023-07-20T03:20:05;9.70;99.90
53776;DHT22;44276;49.534;6.378;2023-07-20T03:22:37;9.70;99.90
53776;DHT22;44276;49.534;6.378;2023-07-20T03:25:06;9.80;99.90
53776;DHT22;44276;49.534;6.378;2023-07-20T03:27:35;9.90;99.90
53776;DHT22;44276;49.534;6.378;2023-07-20T03:30:05;9.90;99.90
53776;DHT22;44276;49.534;6.378;2023-07-20T03:32:36;9.90;99.90
53776;DHT22;44276;49.534;6.378;2023-07-20T03:35:06;9.90;99.90
53776;DHT22;44276;49.534;6.378;2023-07-20T03:37:36;10.00;99.90
53776;DHT22;44276;49.534;6.378;2023-07-20T03:40:06;10.30;99.90
53776;DHT22;44276;49.534;6.378;2023-07-20T03:42:40;10.20;99.90
53776;DHT22;44276;49.534;6.378;2023-07-20T03:45:09;10.20;99.90
53776;DHT22;44276;49.534;6.378;2023-07-20T03:47:39;10.20;99.90
53776;DHT22;44276;49.534;6.378;2023-07-20T03:50:09;10.10;99.90
53776;DHT22;44276;49.534;6.378;2023-07-20T03:52:38;10.10;99.90
53776;DHT22;44276;49.534;6.378;2023-07-20T03:55:07;10.00;99.90
53776;DHT22;44276;49.534;6.378;2023-07-20T03:57:36;10.10;99.90
53776;DHT22;44276;49.534;6.378;2023-07-20T04:00:06;10.00;99.90
53776;DHT22;44276;49.534;6.378;2023-07-20T04:02:35;10.00;99.90
53776;DHT22;44276;49.534;6.378;2023-07-20T04:05:04;9.90;99.90
53776;DHT22;44276;49.534;6.378;2023-07-20T04:07:35;9.80;99.90
53776;DHT22;44276;49.534;6.378;2023-07-20T04:10:04;9.80;99.90
53776;DHT22;44276;49.534;6.378;2023-07-20T04:12:33;9.70;99.90
53776;DHT22;44276;49.534;6.378;2023-07-20T04:15:01;9.70;99.90
53776;DHT22;44276;49.534;6.378;2023-07-20T04:17:39;9.80;99.90
53776;DHT22;44276;49.534;6.378;2023-07-20T04:20:09;10.00;99.90
53776;DHT22;44276;49.534;6.378;2023-07-20T04:22:39;10.10;99.90
53776;DHT22;44276;49.534;6.378;2023-07-20T04:25:08;10.10;99.90
53776;DHT22;44276;49.534;6.378;2023-07-20T04:27:37;10.10;99.90
53776;DHT22;44276;49.534;6.378;2023-07-20T04:30:07;10.10;99.90
53776;DHT22;44276;49.534;6.378;2023-07-20T04:32:39;10.20;99.90
53776;DHT22;44276;49.534;6.378;2023-07-20T04:35:18;10.30;99.90
53776;DHT22;44276;49.534;6.378;2023-07-20T04:38:08;10.50;99.90
53776;DHT22;44276;49.534;6.378;2023-07-20T04:40:36;10.60;99.90
53776;DHT22;44276;49.534;6.378;2023-07-20T04:43:07;10.60;99.90
53776;DHT22;44276;49.534;6.378;2023-07-20T04:45:36;10.70;99.90
53776;DHT22;44276;49.534;6.378;2023-07-20T04:48:06;10.80;99.90
53776;DHT22;44276;49.534;6.378;2023-07-20T04:50:38;11.00;99.90
53776;DHT22;44276;49.534;6.378;2023-07-20T04:53:10;11.20;99.90
53776;DHT22;44276;49.534;6.378;2023-07-20T04:55:39;11.30;99.90
53776;DHT22;44276;49.534;6.378;2023-07-20T04:58:08;11.50;99.90
53776;DHT22;44276;49.534;6.378;2023-07-20T05:00:38;11.60;99.90
53776;DHT22;44276;49.534;6.378;2023-07-20T05:03:06;11.70;99.90
53776;DHT22;44276;49.534;6.378;2023-07-20T05:05:37;11.90;99.90
53776;DHT22;44276;49.534;6.378;2023-07-20T05:08:05;12.00;99.90
53776;DHT22;44276;49.534;6.378;2023-07-20T05:10:35;12.10;99.90
53776;DHT22;44276;49.534;6.378;2023-07-20T05:13:03;12.20;99.90
53776;DHT22;44276;49.534;6.378;2023-07-20T05:15:33;12.30;99.90
53776;DHT22;44276;49.534;6.378;2023-07-20T05:18:01;12.50;99.90
53776;DHT22;44276;49.534;6.378;2023-07-20T05:20:30;12.80;99.90
53776;DHT22;44276;49.534;6.378;2023-07-20T05:23:00;13.60;99.90
53776;DHT22;44276;49.534;6.378;2023-07-20T05:25:28;14.90;99.90
53776;DHT22;44276;49.534;6.378;2023-07-20T05:27:58;16.20;99.90
53776;DHT22;44276;49.534;6.378;2023-07-20T05:30:27;17.40;99.90
53776;DHT22;44276;49.534;6.378;2023-07-20T05:32:55;18.40;99.90
53776;DHT22;44276;49.534;6.378;2023-07-20T05:35:25;19.20;99.30
53776;DHT22;44276;49.534;6.378;2023-07-20T05:37:53;19.90;99.90
53776;DHT22;44276;49.534;6.378;2023-07-20T05:40:22;20.60;87.70
53776;DHT22;44276;49.534;6.378;2023-07-20T05:42:50;21.20;63.60
53776;DHT22;44276;49.534;6.378;2023-07-20T05:45:21;21.50;58.90
53776;DHT22;44276;49.534;6.378;2023-07-20T05:47:50;21.90;51.30
53776;DHT22;44276;49.534;6.378;2023-07-20T05:50:18;22.20;46.80
53776;DHT22;44276;49.534;6.378;2023-07-20T05:52:46;22.50;45.60
53776;DHT22;44276;49.534;6.378;2023-07-20T05:55:15;23.30;40.10
53776;DHT22;44276;49.534;6.378;2023-07-20T05:57:43;23.60;38.00
53776;DHT22;44276;49.534;6.378;2023-07-20T06:00:12;24.00;35.80
53776;DHT22;44276;49.534;6.378;2023-07-20T06:02:42;24.20;32.40
53776;DHT22;44276;49.534;6.378;2023-07-20T06:05:11;24.30;32.10
53776;DHT22;44276;49.534;6.378;2023-07-20T06:07:39;24.60;30.10
53776;DHT22;44276;49.534;6.378;2023-07-20T06:10:07;24.40;30.60
53776;DHT22;44276;49.534;6.378;2023-07-20T06:12:36;24.40;29.80
53776;DHT22;44276;49.534;6.378;2023-07-20T06:15:05;25.00;30.30
53776;DHT22;44276;49.534;6.378;2023-07-20T06:17:53;25.60;28.40
53776;DHT22;44276;49.534;6.378;2023-07-20T06:20:23;26.00;27.30
53776;DHT22;44276;49.534;6.378;2023-07-20T06:22:51;26.50;26.10
53776;DHT22;44276;49.534;6.378;2023-07-20T06:25:19;26.90;25.30
53776;DHT22;44276;49.534;6.378;2023-07-20T06:27:49;27.20;25.00
53776;DHT22;44276;49.534;6.378;2023-07-20T06:30:18;27.20;23.50
53776;DHT22;44276;49.534;6.378;2023-07-20T06:32:46;27.10;23.50
53776;DHT22;44276;49.534;6.378;2023-07-20T06:35:18;26.70;24.00
53776;DHT22;44276;49.534;6.378;2023-07-20T06:37:47;26.90;24.70
53776;DHT22;44276;49.534;6.378;2023-07-20T06:40:16;27.10;23.10
53776;DHT22;44276;49.534;6.378;2023-07-20T06:42:47;27.60;23.30
53776;DHT22;44276;49.534;6.378;2023-07-20T06:45:18;28.40;21.50
53776;DHT22;44276;49.534;6.378;2023-07-20T06:47:46;28.30;21.40
53776;DHT22;44276;49.534;6.378;2023-07-20T06:50:14;28.80;21.40
53776;DHT22;44276;49.534;6.378;2023-07-20T06:52:45;28.90;19.70
53776;DHT22;44276;49.534;6.378;2023-07-20T06:55:15;28.80;20.20
53776;DHT22;44276;49.534;6.378;2023-07-20T06:57:49;28.90;19.50
53776;DHT22;44276;49.534;6.378;2023-07-20T07:00:19;29.00;19.80
53776;DHT22;44276;49.534;6.378;2023-07-20T07:02:48;28.60;19.80
53776;DHT22;44276;49.534;6.378;2023-07-20T07:05:17;27.70;21.40
53776;DHT22;44276;49.534;6.378;2023-07-20T07:07:48;28.60;20.80
53776;DHT22;44276;49.534;6.378;2023-07-20T07:10:17;29.40;19.30
53776;DHT22;44276;49.534;6.378;2023-07-20T07:12:45;29.20;19.20
53776;DHT22;44276;49.534;6.378;2023-07-20T07:15:13;29.10;19.40
53776;DHT22;44276;49.534;6.378;2023-07-20T07:17:44;29.30;19.30
53776;DHT22;44276;49.534;6.378;2023-07-20T07:20:12;30.10;18.30
53776;DHT22;44276;49.534;6.378;2023-07-20T07:22:50;30.30;17.40
53776;DHT22;44276;49.534;6.378;2023-07-20T07:25:19;30.30;17.70
53776;DHT22;44276;49.534;6.378;2023-07-20T07:27:50;29.70;18.20
53776;DHT22;44276;49.534;6.378;2023-07-20T07:30:19;29.70;18.30
53776;DHT22;44276;49.534;6.378;2023-07-20T07:32:48;29.40;18.60
53776;DHT22;44276;49.534;6.378;2023-07-20T07:35:16;28.30;19.80
53776;DHT22;44276;49.534;6.378;2023-07-20T07:37:44;27.70;20.70
53776;DHT22;44276;49.534;6.378;2023-07-20T07:40:33;27.00;21.90
53776;DHT22;44276;49.534;6.378;2023-07-20T07:43:01;27.50;21.90
53776;DHT22;44276;49.534;6.378;2023-07-20T07:45:30;28.00;20.60
53776;DHT22;44276;49.534;6.378;2023-07-20T07:47:58;26.70;22.10
53776;DHT22;44276;49.534;6.378;2023-07-20T07:50:26;25.10;24.60
53776;DHT22;44276;49.534;6.378;2023-07-20T07:52:55;24.50;25.70
53776;DHT22;44276;49.534;6.378;2023-07-20T07:55:24;24.60;26.00
53776;DHT22;44276;49.534;6.378;2023-07-20T07:57:54;26.10;23.90
53776;DHT22;44276;49.534;6.378;2023-07-20T08:00:23;27.90;21.20
53776;DHT22;44276;49.534;6.378;2023-07-20T08:02:51;29.70;18.90
53776;DHT22;44276;49.534;6.378;2023-07-20T08:05:20;30.00;17.50
53776;DHT22;44276;49.534;6.378;2023-07-20T08:07:48;30.10;17.50
53776;DHT22;44276;49.534;6.378;2023-07-20T08:10:16;30.20;17.20
53776;DHT22;44276;49.534;6.378;2023-07-20T08:12:44;30.50;17.10
53776;DHT22;44276;49.534;6.378;2023-07-20T08:15:14;31.30;16.20
53776;DHT22;44276;49.534;6.378;2023-07-20T08:17:42;31.70;15.60
53776;DHT22;44276;49.534;6.378;2023-07-20T08:20:14;32.20;14.80
53776;DHT22;44276;49.534;6.378;2023-07-20T08:22:44;32.50;14.70
53776;DHT22;44276;49.534;6.378;2023-07-20T08:25:14;32.60;13.70
53776;DHT22;44276;49.534;6.378;2023-07-20T08:27:42;33.30;13.20
53776;DHT22;44276;49.534;6.378;2023-07-20T08:30:14;33.10;13.30
53776;DHT22;44276;49.534;6.378;2023-07-20T08:32:42;33.50;13.20
53776;DHT22;44276;49.534;6.378;2023-07-20T08:35:10;33.10;13.10
53776;DHT22;44276;49.534;6.378;2023-07-20T08:37:41;31.70;14.60
53776;DHT22;44276;49.534;6.378;2023-07-20T08:40:11;30.20;17.10
53776;DHT22;44276;49.534;6.378;2023-07-20T08:42:42;29.50;18.00
53776;DHT22;44276;49.534;6.378;2023-07-20T08:45:14;29.30;17.80
53776;DHT22;44276;49.534;6.378;2023-07-20T08:47:45;28.90;18.40
53776;DHT22;44276;49.534;6.378;2023-07-20T08:50:16;28.20;19.70
53776;DHT22;44276;49.534;6.378;2023-07-20T08:52:44;29.00;19.10
53776;DHT22;44276;49.534;6.378;2023-07-20T08:55:13;30.00;17.70
53776;DHT22;44276;49.534;6.378;2023-07-20T08:57:41;30.80;16.20
53776;DHT22;44276;49.534;6.378;2023-07-20T09:00:15;30.20;17.10
53776;DHT22;44276;49.534;6.378;2023-07-20T09:02:46;29.90;17.60
53776;DHT22;44276;49.534;6.378;2023-07-20T09:05:17;30.60;16.70
53776;DHT22;44276;49.534;6.378;2023-07-20T09:07:47;30.00;17.40
53776;DHT22;44276;49.534;6.378;2023-07-20T09:10:15;30.00;17.50
53776;DHT22;44276;49.534;6.378;2023-07-20T09:12:44;30.50;16.70
53776;DHT22;44276;49.534;6.378;2023-07-20T09:15:14;30.70;16.90
53776;DHT22;44276;49.534;6.378;2023-07-20T09:17:46;29.80;17.20
53776;DHT22;44276;49.534;6.378;2023-07-20T09:20:16;29.50;17.70
53776;DHT22;44276;49.534;6.378;2023-07-20T09:22:50;30.40;17.30
53776;DHT22;44276;49.534;6.378;2023-07-20T09:25:21;31.00;16.10
53776;DHT22;44276;49.534;6.378;2023-07-20T09:27:54;31.40;15.70
53776;DHT22;44276;49.534;6.378;2023-07-20T09:30:26;31.70;15.00
53776;DHT22;44276;49.534;6.378;2023-07-20T09:32:58;31.30;15.50
53776;DHT22;44276;49.534;6.378;2023-07-20T09:35:27;29.90;16.80
53776;DHT22;44276;49.534;6.378;2023-07-20T09:38:08;29.10;17.60
53776;DHT22;44276;49.534;6.378;2023-07-20T09:40:40;29.50;17.90
53776;DHT22;44276;49.534;6.378;2023-07-20T09:43:11;30.90;16.00
53776;DHT22;44276;49.534;6.378;2023-07-20T09:45:43;32.80;14.10
53776;DHT22;44276;49.534;6.378;2023-07-20T09:48:15;33.50;12.30
53776;DHT22;44276;49.534;6.378;2023-07-20T09:50:49;32.90;13.70
53776;DHT22;44276;49.534;6.378;2023-07-20T09:53:19;33.10;13.10
53776;DHT22;44276;49.534;6.378;2023-07-20T09:55:48;33.00;12.90
53776;DHT22;44276;49.534;6.378;2023-07-20T09:58:17;32.40;13.40
53776;DHT22;44276;49.534;6.378;2023-07-20T10:00:50;31.10;14.90
53776;DHT22;44276;49.534;6.378;2023-07-20T10:03:22;30.70;15.30
53776;DHT22;44276;49.534;6.378;2023-07-20T10:06:02;31.30;14.70
53776;DHT22;44276;49.534;6.378;2023-07-20T10:08:37;30.80;15.60
53776;DHT22;44276;49.534;6.378;2023-07-20T10:11:10;30.80;14.80
53776;DHT22;44276;49.534;6.378;2023-07-20T10:13:44;31.30;13.70
53776;DHT22;44276;49.534;6.378;2023-07-20T10:16:22;32.20;12.50
53776;DHT22;44276;49.534;6.378;2023-07-20T10:19:02;32.00;12.90
53776;DHT22;44276;49.534;6.378;2023-07-20T10:21:48;31.50;13.50
53776;DHT22;44276;49.534;6.378;2023-07-20T10:24:23;32.00;12.50
53776;DHT22;44276;49.534;6.378;2023-07-20T10:26:53;33.30;11.40
53776;DHT22;44276;49.534;6.378;2023-07-20T10:29:22;33.60;11.20
53776;DHT22;44276;49.534;6.378;2023-07-20T10:31:53;33.70;10.50
53776;DHT22;44276;49.534;6.378;2023-07-20T10:34:22;32.70;11.70
53776;DHT22;44276;49.534;6.378;2023-07-20T10:36:50;31.50;12.30
53776;DHT22;44276;49.534;6.378;2023-07-20T10:39:24;31.40;11.80
53776;DHT22;44276;49.534;6.378;2023-07-20T10:42:01;30.50;13.20
53776;DHT22;44276;49.534;6.378;2023-07-20T10:44:31;31.10;13.00
53776;DHT22;44276;49.534;6.378;2023-07-20T10:47:01;32.30;11.80
53776;DHT22;44276;49.534;6.378;2023-07-20T10:49:33;32.10;10.70
53776;DHT22;44276;49.534;6.378;2023-07-20T10:52:04;31.40;11.70
53776;DHT22;44276;49.534;6.378;2023-07-20T10:54:46;32.10;12.20
53776;DHT22;44276;49.534;6.378;2023-07-20T10:57:32;32.50;10.60
53776;DHT22;44276;49.534;6.378;2023-07-20T11:00:09;32.80;10.60
53776;DHT22;44276;49.534;6.378;2023-07-20T11:02:44;34.00;10.10
53776;DHT22;44276;49.534;6.378;2023-07-20T11:05:37;35.90;7.90
53776;DHT22;44276;49.534;6.378;2023-07-20T11:08:10;36.60;6.90
53776;DHT22;44276;49.534;6.378;2023-07-20T11:10:39;35.90;7.10
53776;DHT22;44276;49.534;6.378;2023-07-20T11:13:17;35.10;8.30
53776;DHT22;44276;49.534;6.378;2023-07-20T11:16:02;34.30;8.10
53776;DHT22;44276;49.534;6.378;2023-07-20T11:18:36;34.10;8.00
53776;DHT22;44276;49.534;6.378;2023-07-20T11:21:09;34.00;8.30
53776;DHT22;44276;49.534;6.378;2023-07-20T11:23:38;33.80;9.00
53776;DHT22;44276;49.534;6.378;2023-07-20T11:26:07;34.70;8.00
53776;DHT22;44276;49.534;6.378;2023-07-20T11:28:36;34.80;7.90
53776;DHT22;44276;49.534;6.378;2023-07-20T11:31:04;33.80;8.10
53776;DHT22;44276;49.534;6.378;2023-07-20T11:33:33;32.10;9.50
53776;DHT22;44276;49.534;6.378;2023-07-20T11:36:02;31.20;11.10
53776;DHT22;44276;49.534;6.378;2023-07-20T11:38:52;31.40;10.60
53776;DHT22;44276;49.534;6.378;2023-07-20T11:41:21;32.50;9.60
53776;DHT22;44276;49.534;6.378;2023-07-20T11:43:49;34.10;7.60
53776;DHT22;44276;49.534;6.378;2023-07-20T11:46:18;35.40;6.70
53776;DHT22;44276;49.534;6.378;2023-07-20T11:48:46;35.20;6.50
53776;DHT22;44276;49.534;6.378;2023-07-20T11:51:16;33.70;7.80
53776;DHT22;44276;49.534;6.378;2023-07-20T11:53:45;31.90;8.40
53776;DHT22;44276;49.534;6.378;2023-07-20T11:56:14;30.60;9.30
53776;DHT22;44276;49.534;6.378;2023-07-20T11:58:43;31.00;8.80
53776;DHT22;44276;49.534;6.378;2023-07-20T12:01:12;32.00;8.00
53776;DHT22;44276;49.534;6.378;2023-07-20T12:03:42;32.00;8.30
53776;DHT22;44276;49.534;6.378;2023-07-20T12:06:11;31.90;9.00
53776;DHT22;44276;49.534;6.378;2023-07-20T12:08:43;31.40;9.20
53776;DHT22;44276;49.534;6.378;2023-07-20T12:11:12;31.90;8.40
53776;DHT22;44276;49.534;6.378;2023-07-20T12:13:42;32.80;8.70
53776;DHT22;44276;49.534;6.378;2023-07-20T12:16:13;33.90;6.50
53776;DHT22;44276;49.534;6.378;2023-07-20T12:18:43;33.90;6.90
53776;DHT22;44276;49.534;6.378;2023-07-20T12:21:11;32.70;7.50
53776;DHT22;44276;49.534;6.378;2023-07-20T12:23:41;30.90;9.20
53776;DHT22;44276;49.534;6.378;2023-07-20T12:26:10;29.40;11.70
53776;DHT22;44276;49.534;6.378;2023-07-20T12:28:39;28.30;12.90
53776;DHT22;44276;49.534;6.378;2023-07-20T12:31:09;27.90;12.90
53776;DHT22;44276;49.534;6.378;2023-07-20T12:33:37;27.60;12.50
53776;DHT22;44276;49.534;6.378;2023-07-20T12:36:06;27.40;12.60
53776;DHT22;44276;49.534;6.378;2023-07-20T12:38:34;27.70;13.10
53776;DHT22;44276;49.534;6.378;2023-07-20T12:41:04;27.70;12.50
53776;DHT22;44276;49.534;6.378;2023-07-20T12:43:32;27.50;12.90
53776;DHT22;44276;49.534;6.378;2023-07-20T12:46:00;28.80;11.50
53776;DHT22;44276;49.534;6.378;2023-07-20T12:48:29;29.50;11.20
53776;DHT22;44276;49.534;6.378;2023-07-20T12:50:57;29.10;11.90
53776;DHT22;44276;49.534;6.378;2023-07-20T12:53:25;28.20;12.90
53776;DHT22;44276;49.534;6.378;2023-07-20T12:55:54;27.30;13.70
53776;DHT22;44276;49.534;6.378;2023-07-20T12:58:23;26.80;14.60
53776;DHT22;44276;49.534;6.378;2023-07-20T13:00:51;27.20;14.00
53776;DHT22;44276;49.534;6.378;2023-07-20T13:03:20;28.80;11.70
53776;DHT22;44276;49.534;6.378;2023-07-20T13:05:51;29.30;10.80
53776;DHT22;44276;49.534;6.378;2023-07-20T13:08:22;29.20;11.70
53776;DHT22;44276;49.534;6.378;2023-07-20T13:10:52;29.50;10.90
53776;DHT22;44276;49.534;6.378;2023-07-20T13:13:20;29.20;11.20
53776;DHT22;44276;49.534;6.378;2023-07-20T13:15:50;28.80;11.60
53776;DHT22;44276;49.534;6.378;2023-07-20T13:18:18;28.60;12.50
53776;DHT22;44276;49.534;6.378;2023-07-20T13:20:46;28.20;12.60
53776;DHT22;44276;49.534;6.378;2023-07-20T13:23:14;28.20;12.90
53776;DHT22;44276;49.534;6.378;2023-07-20T13:25:42;29.20;12.40
53776;DHT22;44276;49.534;6.378;2023-07-20T13:28:11;30.90;10.00
53776;DHT22;44276;49.534;6.378;2023-07-20T13:30:39;32.20;7.90
53776;DHT22;44276;49.534;6.378;2023-07-20T13:33:09;32.20;8.00
53776;DHT22;44276;49.534;6.378;2023-07-20T13:35:43;30.70;9.20
53776;DHT22;44276;49.534;6.378;2023-07-20T13:38:14;30.50;9.00
53776;DHT22;44276;49.534;6.378;2023-07-20T13:40:43;29.30;10.10
53776;DHT22;44276;49.534;6.378;2023-07-20T13:43:12;28.50;11.30
53776;DHT22;44276;49.534;6.378;2023-07-20T13:45:40;28.70;11.60
53776;DHT22;44276;49.534;6.378;2023-07-20T13:48:09;29.60;9.70
53776;DHT22;44276;49.534;6.378;2023-07-20T13:50:38;30.30;8.30
53776;DHT22;44276;49.534;6.378;2023-07-20T13:53:25;30.80;8.90
53776;DHT22;44276;49.534;6.378;2023-07-20T13:55:57;30.80;8.40
53776;DHT22;44276;49.534;6.378;2023-07-20T13:58:28;31.10;8.20
53776;DHT22;44276;49.534;6.378;2023-07-20T14:00:57;31.50;8.20
53776;DHT22;44276;49.534;6.378;2023-07-20T14:03:27;32.30;7.50
53776;DHT22;44276;49.534;6.378;2023-07-20T14:05:55;32.00;7.40
53776;DHT22;44276;49.534;6.378;2023-07-20T14:08:27;31.80;6.70
53776;DHT22;44276;49.534;6.378;2023-07-20T14:10:56;32.00;6.70
53776;DHT22;44276;49.534;6.378;2023-07-20T14:13:27;32.30;5.80
53776;DHT22;44276;49.534;6.378;2023-07-20T14:16:13;30.90;7.60
53776;DHT22;44276;49.534;6.378;2023-07-20T14:18:42;29.00;9.10
53776;DHT22;44276;49.534;6.378;2023-07-20T14:21:16;28.10;10.30
53776;DHT22;44276;49.534;6.378;2023-07-20T14:23:45;27.80;10.90
53776;DHT22;44276;49.534;6.378;2023-07-20T14:26:14;27.80;11.60
53776;DHT22;44276;49.534;6.378;2023-07-20T14:28:42;27.80;11.10
53776;DHT22;44276;49.534;6.378;2023-07-20T14:31:10;28.50;10.80
53776;DHT22;44276;49.534;6.378;2023-07-20T14:33:39;29.60;9.00
53776;DHT22;44276;49.534;6.378;2023-07-20T14:36:08;30.30;8.90
53776;DHT22;44276;49.534;6.378;2023-07-20T14:38:37;30.30;7.90
53776;DHT22;44276;49.534;6.378;2023-07-20T14:41:07;30.10;7.80
53776;DHT22;44276;49.534;6.378;2023-07-20T14:43:35;30.00;8.40
53776;DHT22;44276;49.534;6.378;2023-07-20T14:46:03;30.30;8.20
53776;DHT22;44276;49.534;6.378;2023-07-20T14:48:32;29.30;8.20
53776;DHT22;44276;49.534;6.378;2023-07-20T14:51:00;28.90;8.90
53776;DHT22;44276;49.534;6.378;2023-07-20T14:53:33;28.80;8.70
53776;DHT22;44276;49.534;6.378;2023-07-20T14:56:03;29.30;8.10
53776;DHT22;44276;49.534;6.378;2023-07-20T14:58:31;30.00;7.60
53776;DHT22;44276;49.534;6.378;2023-07-20T15:01:02;30.60;7.30
53776;DHT22;44276;49.534;6.378;2023-07-20T15:03:31;31.50;5.90
53776;DHT22;44276;49.534;6.378;2023-07-20T15:05:59;31.30;6.40
53776;DHT22;44276;49.534;6.378;2023-07-20T15:08:28;31.00;6.00
53776;DHT22;44276;49.534;6.378;2023-07-20T15:10:59;30.80;6.80
53776;DHT22;44276;49.534;6.378;2023-07-20T15:13:27;29.80;7.90
53776;DHT22;44276;49.534;6.378;2023-07-20T15:15:55;28.50;9.80
53776;DHT22;44276;49.534;6.378;2023-07-20T15:18:23;27.80;9.70
53776;DHT22;44276;49.534;6.378;2023-07-20T15:21:11;27.50;10.40
53776;DHT22;44276;49.534;6.378;2023-07-20T15:23:39;28.20;9.80
53776;DHT22;44276;49.534;6.378;2023-07-20T15:26:09;28.70;10.20
53776;DHT22;44276;49.534;6.378;2023-07-20T15:28:37;29.00;9.20
53776;DHT22;44276;49.534;6.378;2023-07-20T15:31:06;29.30;9.50
53776;DHT22;44276;49.534;6.378;2023-07-20T15:33:34;29.50;8.70
53776;DHT22;44276;49.534;6.378;2023-07-20T15:36:03;29.40;8.60
53776;DHT22;44276;49.534;6.378;2023-07-20T15:38:33;29.40;7.80
53776;DHT22;44276;49.534;6.378;2023-07-20T15:41:01;29.30;8.30
53776;DHT22;44276;49.534;6.378;2023-07-20T15:43:31;29.30;7.70
53776;DHT22;44276;49.534;6.378;2023-07-20T15:46:43;28.50;7.40
53776;DHT22;44276;49.534;6.378;2023-07-20T15:49:15;28.00;9.00
53776;DHT22;44276;49.534;6.378;2023-07-20T15:51:43;27.80;9.50
53776;DHT22;44276;49.534;6.378;2023-07-20T15:54:14;27.70;9.50
53776;DHT22;44276;49.534;6.378;2023-07-20T15:56:43;27.80;10.00